Time;durP1;ratioP1;P1;durP2;ratioP2;P2;SDS_P1;SDS_P2;PMS_P1;PMS_P2;Temp;Humidity;BMP_temperature;BMP_pressure;BME280_temperature;BME280_humidity;BME280_pressure;Samples;Min_cycle;Max_cycle;Signal;HPM_P1;HPM_P2
2023/07/31 00:01:05;;;;;;;9.18;5.68;;;;;;;;;;5075301;28;20066;-82
2023/07/31 00:03:31;;;;;;;7.22;5.10;;;;;;;;;;5072686;28;20051;-81
2023/07/31 00:05:57;;;;;;;7.97;4.97;;;;;;;;;;5070762;28;20086;-82
2023/07/31 00:08:23;;;;;;;6.47;5.05;;;;;;;;;;5054705;28;20428;-82
2023/07/31 00:10:52;;;;;;;8.30;5.68;;;;;;;;;;5056496;28;20079;-82
2023/07/31 00:13:18;;;;;;;6.60;5.38;;;;;;;;;;5088805;28;20078;-82
2023/07/31 00:15:44;;;;;;;7.22;5.70;;;;;;;;;;5057148;28;20043;-83
2023/07/31 00:18:10;;;;;;;6.60;4.95;;;;;;;;;;5069468;28;20137;-82
2023/07/31 00:20:37;;;;;;;5.03;4.47;;;;;;;;;;5064680;28;20206;-76
2023/07/31 00:23:03;;;;;;;6.47;5.10;;;;;;;;;;5046104;28;20093;-75
2023/07/31 00:25:29;;;;;;;6.43;5.32;;;;;;;;;;5058294;28;20056;-76
2023/07/31 00:27:55;;;;;;;8.20;6.35;;;;;;;;;;5063068;28;20056;-76
2023/07/31 00:30:22;;;;;;;9.30;5.90;;;;;;;;;;5061771;28;20056;-76
2023/07/31 00:32:48;;;;;;;8.65;6.25;;;;;;;;;;5062187;28;20048;-76
2023/07/31 00:35:14;;;;;;;9.05;6.07;;;;;;;;;;5065054;28;20274;-76
2023/07/31 00:37:40;;;;;;;6.22;5.63;;;;;;;;;;5041908;28;20756;-76
2023/07/31 00:40:07;;;;;;;6.75;6.03;;;;;;;;;;5064562;28;20046;-76
2023/07/31 00:42:33;;;;;;;6.28;5.50;;;;;;;;;;5042018;28;20135;-76
2023/07/31 00:44:59;;;;;;;6.90;6.20;;;;;;;;;;5082427;27;20075;-76
2023/07/31 00:47:25;;;;;;;8.50;6.60;;;;;;;;;;5045012;28;20149;-76
2023/07/31 00:49:51;;;;;;;10.55;6.10;;;;;;;;;;5064247;28;20102;-76
2023/07/31 00:52:19;;;;;;;5.90;5.35;;;;;;;;;;5062932;28;20052;-76
2023/07/31 00:54:45;;;;;;;7.18;5.45;;;;;;;;;;5061489;28;20055;-76
2023/07/31 00:57:11;;;;;;;7.75;5.00;;;;;;;;;;5079458;28;20048;-76
2023/07/31 00:59:37;;;;;;;5.93;5.32;;;;;;;;;;5060841;28;20051;-76
2023/07/31 01:02:03;;;;;;;6.60;5.45;;;;;;;;;;5066034;28;20312;-76
2023/07/31 01:04:30;;;;;;;5.53;4.50;;;;;;;;;;5065398;28;20976;-76
2023/07/31 01:07:09;;;;;;;8.70;4.65;;;;;;;;;;5066058;28;20052;-76
2023/07/31 01:09:41;;;;;;;6.30;4.72;;;;;;;;;;5065310;28;20055;-76
2023/07/31 01:12:08;;;;;;;7.35;5.03;;;;;;;;;;5082671;28;20078;-76
2023/07/31 01:14:34;;;;;;;7.25;5.68;;;;;;;;;;5065144;28;20047;-76
2023/07/31 01:17:01;;;;;;;6.63;5.38;;;;;;;;;;5066829;28;20047;-76
2023/07/31 01:19:27;;;;;;;8.82;5.75;;;;;;;;;;5066638;27;20052;-76
2023/07/31 01:22:11;;;;;;;8.60;4.47;;;;;;;;;;5067657;28;20064;-76
2023/07/31 01:24:37;;;;;;;;;;;;;;;;;;5066714;28;20063;-77
2023/07/31 01:27:06;;;;;;;3.08;2.72;;;;;;;;;;5064690;28;19916;-77
2023/07/31 01:29:43;;;;;;;5.55;4.30;;;;;;;;;;5082334;28;20043;-80
2023/07/31 01:32:10;;;;;;;4.90;4.30;;;;;;;;;;5060469;28;20048;-80
2023/07/31 01:34:36;;;;;;;6.30;5.65;;;;;;;;;;5082487;28;20047;-81
2023/07/31 01:37:02;;;;;;;8.02;7.22;;;;;;;;;;5061897;28;20058;-80
2023/07/31 01:39:28;;;;;;;11.65;7.80;;;;;;;;;;5056588;28;20047;-80
2023/07/31 01:41:54;;;;;;;7.72;7.00;;;;;;;;;;5064391;28;20128;-80
2023/07/31 01:44:20;;;;;;;9.85;6.88;;;;;;;;;;5065441;28;20051;-80
2023/07/31 01:46:46;;;;;;;10.10;6.72;;;;;;;;;;5048140;28;20197;-80
2023/07/31 01:49:13;;;;;;;10.07;7.75;;;;;;;;;;5052506;28;20047;-79
2023/07/31 01:51:39;;;;;;;9.23;7.80;;;;;;;;;;5066384;28;20052;-79
2023/07/31 01:54:06;;;;;;;10.13;7.60;;;;;;;;;;5051647;28;20052;-79
2023/07/31 01:56:32;;;;;;;6.75;6.15;;;;;;;;;;5067485;27;20047;-79
2023/07/31 01:58:58;;;;;;;10.48;8.35;;;;;;;;;;5045811;28;20101;-79
2023/07/31 02:01:24;;;;;;;10.80;8.55;;;;;;;;;;5042477;28;20559;-78
2023/07/31 02:03:50;;;;;;;12.73;8.75;;;;;;;;;;5050030;28;20055;-79
2023/07/31 02:06:16;;;;;;;11.90;8.10;;;;;;;;;;5079614;27;20055;-79
2023/07/31 02:08:42;;;;;;;10.98;9.10;;;;;;;;;;5065110;28;20434;-78
2023/07/31 02:11:08;;;;;;;11.82;8.25;;;;;;;;;;5040974;28;20106;-79
2023/07/31 02:13:34;;;;;;;13.27;7.75;;;;;;;;;;5045419;28;20051;-78
2023/07/31 02:16:01;;;;;;;10.95;7.15;;;;;;;;;;5047842;28;20051;-79
2023/07/31 02:18:27;;;;;;;11.25;7.55;;;;;;;;;;5038616;28;20051;-79
2023/07/31 02:20:53;;;;;;;8.32;6.90;;;;;;;;;;5065336;28;20114;-79
2023/07/31 02:23:19;;;;;;;10.70;6.50;;;;;;;;;;5029750;28;20050;-79
2023/07/31 02:25:46;;;;;;;7.25;5.63;;;;;;;;;;5062833;28;20636;-79
2023/07/31 02:28:12;;;;;;;7.50;6.60;;;;;;;;;;5044235;28;20052;-79
2023/07/31 02:30:38;;;;;;;8.38;6.97;;;;;;;;;;5047509;28;20060;-79
2023/07/31 02:33:05;;;;;;;8.43;7.38;;;;;;;;;;5065956;28;20056;-79
2023/07/31 02:35:31;;;;;;;8.38;6.65;;;;;;;;;;5045529;28;20079;-80
2023/07/31 02:37:57;;;;;;;7.93;7.10;;;;;;;;;;5030568;28;20040;-79
2023/07/31 02:40:24;;;;;;;7.72;5.57;;;;;;;;;;5064950;28;20078;-79
2023/07/31 02:42:50;;;;;;;13.38;7.60;;;;;;;;;;5043156;28;20051;-79
2023/07/31 02:45:16;;;;;;;7.30;6.38;;;;;;;;;;5047907;28;20569;-79
2023/07/31 02:47:42;;;;;;;9.18;5.95;;;;;;;;;;5064117;28;20052;-78
2023/07/31 02:50:08;;;;;;;10.35;6.95;;;;;;;;;;5023409;28;20056;-79
2023/07/31 02:52:34;;;;;;;7.95;6.40;;;;;;;;;;5046509;28;20067;-79
2023/07/31 02:55:01;;;;;;;7.05;5.93;;;;;;;;;;5066010;28;20056;-79
2023/07/31 02:57:27;;;;;;;11.38;7.28;;;;;;;;;;5033093;28;20492;-78
2023/07/31 02:59:53;;;;;;;7.68;5.65;;;;;;;;;;5059669;28;20066;-78
2023/07/31 03:02:19;;;;;;;9.68;6.78;;;;;;;;;;5064360;28;20044;-77
2023/07/31 03:04:45;;;;;;;9.48;5.65;;;;;;;;;;5063383;28;20766;-79
2023/07/31 03:07:11;;;;;;;8.48;6.20;;;;;;;;;;5044278;28;20127;-77
2023/07/31 03:09:37;;;;;;;7.57;6.00;;;;;;;;;;5067900;28;20043;-77
2023/07/31 03:12:03;;;;;;;8.82;6.03;;;;;;;;;;5063217;28;20623;-76
2023/07/31 03:14:29;;;;;;;7.25;5.80;;;;;;;;;;5064026;28;22005;-76
2023/07/31 03:16:55;;;;;;;10.52;6.15;;;;;;;;;;5064213;28;20054;-76
2023/07/31 03:19:22;;;;;;;7.03;5.78;;;;;;;;;;5082546;28;20051;-76
2023/07/31 03:21:48;;;;;;;6.93;5.03;;;;;;;;;;5082911;28;20048;-76
2023/07/31 03:24:14;;;;;;;7.63;4.55;;;;;;;;;;5079875;28;20092;-76
2023/07/31 03:26:41;;;;;;;7.15;5.45;;;;;;;;;;5081600;28;20047;-75
2023/07/31 03:29:07;;;;;;;7.15;5.30;;;;;;;;;;5081972;28;20059;-75
2023/07/31 03:31:34;;;;;;;5.20;4.70;;;;;;;;;;5080590;28;20139;-75
2023/07/31 03:34:00;;;;;;;5.57;4.88;;;;;;;;;;5080224;28;20052;-75
2023/07/31 03:36:26;;;;;;;5.45;4.82;;;;;;;;;;5081018;28;20044;-75
2023/07/31 03:38:52;;;;;;;7.57;4.70;;;;;;;;;;5053006;28;21353;-75
2023/07/31 03:41:18;;;;;;;5.45;4.47;;;;;;;;;;5082176;28;20047;-75
2023/07/31 03:43:46;;;;;;;4.78;3.50;;;;;;;;;;5081703;28;20048;-75
2023/07/31 03:46:12;;;;;;;5.10;3.90;;;;;;;;;;5079885;28;20975;-75
2023/07/31 03:48:38;;;;;;;5.60;3.85;;;;;;;;;;5070908;28;20047;-75
2023/07/31 03:51:04;;;;;;;6.55;3.20;;;;;;;;;;5081554;28;20055;-75
2023/07/31 03:53:30;;;;;;;6.80;3.28;;;;;;;;;;5081748;28;20048;-75
2023/07/31 03:55:56;;;;;;;4.80;3.38;;;;;;;;;;5045248;28;20134;-75
2023/07/31 03:58:22;;;;;;;4.78;3.38;;;;;;;;;;5075238;28;20047;-75
2023/07/31 04:00:48;;;;;;;5.70;3.53;;;;;;;;;;5078454;28;20055;-75
2023/07/31 04:03:14;;;;;;;4.65;3.20;;;;;;;;;;5080474;28;20507;-75
2023/07/31 04:05:41;;;;;;;5.22;3.67;;;;;;;;;;5048113;28;20105;-75
2023/07/31 04:08:07;;;;;;;6.97;3.30;;;;;;;;;;5058692;28;20063;-74
2023/07/31 04:10:33;;;;;;;5.07;3.20;;;;;;;;;;5078350;28;20472;-75
2023/07/31 04:13:02;;;;;;;3.33;2.95;;;;;;;;;;5060494;28;20056;-75
2023/07/31 04:15:28;;;;;;;4.55;3.10;;;;;;;;;;5048425;28;20666;-75
2023/07/31 04:17:55;;;;;;;6.13;3.28;;;;;;;;;;5078398;28;20088;-75
2023/07/31 04:20:21;;;;;;;5.90;3.20;;;;;;;;;;5080485;28;20055;-75
2023/07/31 04:22:47;;;;;;;3.70;3.30;;;;;;;;;;5077329;28;20048;-75
2023/07/31 04:25:13;;;;;;;4.95;3.80;;;;;;;;;;5080344;28;20040;-75
2023/07/31 04:27:40;;;;;;;5.47;3.42;;;;;;;;;;5078119;28;20160;-75
2023/07/31 04:30:06;;;;;;;6.95;3.83;;;;;;;;;;5037745;28;20732;-75
2023/07/31 04:32:32;;;;;;;4.90;3.20;;;;;;;;;;5081267;28;20709;-76
2023/07/31 04:34:58;;;;;;;4.05;3.08;;;;;;;;;;5082528;28;20130;-76
2023/07/31 04:37:24;;;;;;;7.72;3.95;;;;;;;;;;5062701;28;20479;-76
2023/07/31 04:39:50;;;;;;;5.95;3.55;;;;;;;;;;5084074;28;20050;-76
2023/07/31 04:42:16;;;;;;;10.18;3.50;;;;;;;;;;5083155;28;20052;-76
2023/07/31 04:44:43;;;;;;;6.63;3.17;;;;;;;;;;5049330;28;20447;-75
2023/07/31 04:47:09;;;;;;;6.95;3.60;;;;;;;;;;5063960;28;20052;-76
2023/07/31 04:49:35;;;;;;;11.50;3.83;;;;;;;;;;5081988;28;20047;-76
2023/07/31 04:52:01;;;;;;;7.38;4.30;;;;;;;;;;5063885;28;20415;-76
2023/07/31 04:54:27;;;;;;;5.95;3.75;;;;;;;;;;5063055;28;20056;-76
2023/07/31 04:56:53;;;;;;;14.45;4.32;;;;;;;;;;5064897;28;20074;-76
2023/07/31 04:59:19;;;;;;;8.95;4.00;;;;;;;;;;5082018;27;20043;-76
2023/07/31 05:01:45;;;;;;;7.72;4.50;;;;;;;;;;5075277;27;20147;-76
2023/07/31 05:04:14;;;;;;;7.82;3.47;;;;;;;;;;5063293;28;20457;-76
2023/07/31 05:06:41;;;;;;;9.27;4.20;;;;;;;;;;5065298;28;20065;-76
2023/07/31 05:09:09;;;;;;;7.40;3.83;;;;;;;;;;5081963;27;20134;-76
2023/07/31 05:11:35;;;;;;;7.40;3.78;;;;;;;;;;5062736;28;20131;-76
2023/07/31 05:14:01;;;;;;;5.38;3.88;;;;;;;;;;5083168;28;20318;-76
2023/07/31 05:16:27;;;;;;;8.18;4.13;;;;;;;;;;5083030;28;20048;-76
2023/07/31 05:18:53;;;;;;;9.63;4.18;;;;;;;;;;5065067;28;20747;-76
2023/07/31 05:21:19;;;;;;;12.30;4.35;;;;;;;;;;5080117;28;20071;-76
2023/07/31 05:23:47;;;;;;;6.85;4.18;;;;;;;;;;5080930;28;20555;-76
2023/07/31 05:26:13;;;;;;;6.40;3.97;;;;;;;;;;5081370;28;20567;-76
2023/07/31 05:28:39;;;;;;;5.50;3.30;;;;;;;;;;5063486;28;20108;-76
2023/07/31 05:31:06;;;;;;;5.13;3.25;;;;;;;;;;5080010;28;20047;-76
2023/07/31 05:33:33;;;;;;;5.57;2.97;;;;;;;;;;5083047;27;20056;-76
2023/07/31 05:35:59;;;;;;;3.55;2.72;;;;;;;;;;5082798;27;20054;-76
2023/07/31 05:38:25;;;;;;;4.93;2.60;;;;;;;;;;5082251;28;20127;-76
2023/07/31 05:40:51;;;;;;;3.95;3.13;;;;;;;;;;5081265;28;20251;-75
2023/07/31 05:43:17;;;;;;;5.25;2.80;;;;;;;;;;5083171;28;20137;-76
2023/07/31 05:45:44;;;;;;;5.50;2.33;;;;;;;;;;5078292;28;20484;-77
2023/07/31 05:48:10;;;;;;;4.05;2.60;;;;;;;;;;5034464;28;20457;-76
2023/07/31 05:50:38;;;;;;;2.83;2.03;;;;;;;;;;5081264;28;20116;-76
2023/07/31 05:53:05;;;;;;;5.07;2.63;;;;;;;;;;5078349;28;20300;-76
2023/07/31 05:55:31;;;;;;;7.78;2.97;;;;;;;;;;5083670;27;20665;-76
2023/07/31 05:57:57;;;;;;;3.90;2.00;;;;;;;;;;5082076;27;20047;-74
2023/07/31 06:00:23;;;;;;;4.53;2.33;;;;;;;;;;5077696;28;20528;-76
2023/07/31 06:02:49;;;;;;;2.55;1.80;;;;;;;;;;5084681;27;22090;-76
2023/07/31 06:05:15;;;;;;;2.13;1.73;;;;;;;;;;5063398;28;20052;-75
2023/07/31 06:07:41;;;;;;;2.97;1.70;;;;;;;;;;5033101;28;20546;-76
2023/07/31 06:10:08;;;;;;;3.58;1.50;;;;;;;;;;5083325;28;20056;-76
2023/07/31 06:12:34;;;;;;;2.42;1.65;;;;;;;;;;5061854;28;20056;-76
2023/07/31 06:15:00;;;;;;;1.92;1.42;;;;;;;;;;5046698;28;20224;-76
2023/07/31 06:17:27;;;;;;;3.60;1.95;;;;;;;;;;5061803;28;20052;-75
2023/07/31 06:19:53;;;;;;;2.17;1.77;;;;;;;;;;5058058;28;20200;-75
2023/07/31 06:22:19;;;;;;;4.38;2.08;;;;;;;;;;5066013;28;20172;-75
2023/07/31 06:24:45;;;;;;;7.90;2.35;;;;;;;;;;5063793;28;20138;-75
2023/07/31 06:27:12;;;;;;;6.13;2.47;;;;;;;;;;5078596;28;20418;-75
2023/07/31 06:29:38;;;;;;;2.67;2.10;;;;;;;;;;5065253;28;20036;-75
2023/07/31 06:32:04;;;;;;;2.90;1.70;;;;;;;;;;5064564;28;20056;-76
2023/07/31 06:34:30;;;;;;;4.32;1.48;;;;;;;;;;5061036;28;20311;-75
2023/07/31 06:36:56;;;;;;;1.30;1.20;;;;;;;;;;5067545;28;20140;-76
2023/07/31 06:39:23;;;;;;;1.33;1.23;;;;;;;;;;5067332;28;20431;-76
2023/07/31 06:41:49;;;;;;;1.67;1.38;;;;;;;;;;5069905;28;20043;-76
2023/07/31 06:44:15;;;;;;;1.70;1.55;;;;;;;;;;5045067;28;20616;-76
2023/07/31 06:46:41;;;;;;;2.35;1.70;;;;;;;;;;5085970;27;20079;-76
2023/07/31 06:49:07;;;;;;;2.47;1.83;;;;;;;;;;5083801;28;20679;-76
2023/07/31 06:51:33;;;;;;;3.03;1.98;;;;;;;;;;5084010;28;20051;-76
2023/07/31 06:53:59;;;;;;;2.47;1.75;;;;;;;;;;5068216;28;20071;-77
2023/07/31 06:56:26;;;;;;;2.95;1.83;;;;;;;;;;5066548;28;20079;-76
2023/07/31 06:58:52;;;;;;;3.03;2.08;;;;;;;;;;5037925;27;20043;-77
2023/07/31 07:01:18;;;;;;;2.85;1.90;;;;;;;;;;5066935;28;20040;-76
2023/07/31 07:03:44;;;;;;;2.65;2.10;;;;;;;;;;5068670;27;20050;-75
2023/07/31 07:06:10;;;;;;;3.00;1.83;;;;;;;;;;5068283;28;20059;-76
2023/07/31 07:08:37;;;;;;;5.07;2.97;;;;;;;;;;5085822;27;20545;-76
2023/07/31 07:11:03;;;;;;;5.38;2.95;;;;;;;;;;5067245;27;20048;-76
2023/07/31 07:13:29;;;;;;;7.55;4.07;;;;;;;;;;5068351;27;20059;-75
2023/07/31 07:15:55;;;;;;;7.28;4.05;;;;;;;;;;5069477;28;20134;-76
2023/07/31 07:18:21;;;;;;;8.20;3.85;;;;;;;;;;5085347;28;20048;-75
2023/07/31 07:20:50;;;;;;;9.52;4.47;;;;;;;;;;5062935;28;20059;-76
2023/07/31 07:23:16;;;;;;;9.35;4.15;;;;;;;;;;5084811;28;20098;-76
2023/07/31 07:25:43;;;;;;;11.70;4.65;;;;;;;;;;5086710;27;20047;-74
2023/07/31 07:28:09;;;;;;;16.88;6.20;;;;;;;;;;5082999;28;20186;-75
2023/07/31 07:30:35;;;;;;;14.88;6.03;;;;;;;;;;5064110;28;20089;-75
2023/07/31 07:33:01;;;;;;;15.95;6.97;;;;;;;;;;5054666;28;20193;-74
2023/07/31 07:35:27;;;;;;;24.52;8.65;;;;;;;;;;5085940;28;20044;-75
2023/07/31 07:37:53;;;;;;;23.27;8.48;;;;;;;;;;5045501;28;20040;-74
2023/07/31 07:40:19;;;;;;;21.65;8.90;;;;;;;;;;5087430;28;20051;-75
2023/07/31 07:42:46;;;;;;;30.10;9.40;;;;;;;;;;5065895;28;20059;-75
2023/07/31 07:45:12;;;;;;;32.15;10.27;;;;;;;;;;5067479;28;20070;-75
2023/07/31 07:47:39;;;;;;;32.45;11.55;;;;;;;;;;5086317;28;20082;-75
2023/07/31 07:50:05;;;;;;;35.95;10.38;;;;;;;;;;5085650;28;20051;-76
2023/07/31 07:52:31;;;;;;;29.27;9.85;;;;;;;;;;5066426;28;20090;-75
2023/07/31 07:54:57;;;;;;;31.30;10.00;;;;;;;;;;5069503;28;20055;-75
2023/07/31 07:57:26;;;;;;;34.10;11.90;;;;;;;;;;5067420;28;20531;-75
2023/07/31 07:59:53;;;;;;;33.03;11.07;;;;;;;;;;5050195;28;20075;-75
2023/07/31 08:02:19;;;;;;;34.40;12.40;;;;;;;;;;5064729;28;20063;-75
2023/07/31 08:04:45;;;;;;;40.72;12.63;;;;;;;;;;5066792;28;20399;-75
2023/07/31 08:07:14;;;;;;;32.40;11.45;;;;;;;;;;5067607;28;20105;-76
2023/07/31 08:09:40;;;;;;;45.00;14.35;;;;;;;;;;5071970;28;20066;-75
2023/07/31 08:12:06;;;;;;;36.58;11.93;;;;;;;;;;5068318;27;20152;-76
2023/07/31 08:14:32;;;;;;;31.95;12.13;;;;;;;;;;5087341;28;20055;-75
2023/07/31 08:16:59;;;;;;;36.80;12.23;;;;;;;;;;5069077;28;20050;-75
2023/07/31 08:19:25;;;;;;;20.80;8.15;;;;;;;;;;5070656;28;20048;-75
2023/07/31 08:21:51;;;;;;;26.23;7.18;;;;;;;;;;5070810;28;20046;-75
2023/07/31 08:24:17;;;;;;;9.90;4.63;;;;;;;;;;5089150;28;20093;-76
2023/07/31 08:26:43;;;;;;;10.00;4.22;;;;;;;;;;5069843;28;20050;-76
2023/07/31 08:29:09;;;;;;;15.02;4.78;;;;;;;;;;5088695;27;20401;-76
2023/07/31 08:31:35;;;;;;;8.57;3.85;;;;;;;;;;5068788;28;20175;-75
2023/07/31 08:34:01;;;;;;;13.32;4.95;;;;;;;;;;5053972;28;20067;-76
2023/07/31 08:36:27;;;;;;;5.63;3.15;;;;;;;;;;5070140;28;20597;-75
2023/07/31 08:38:53;;;;;;;9.50;3.63;;;;;;;;;;5087762;28;20040;-75
2023/07/31 08:41:19;;;;;;;12.32;5.22;;;;;;;;;;5070218;28;20067;-76
2023/07/31 08:43:46;;;;;;;11.23;4.95;;;;;;;;;;5065411;28;20048;-76
2023/07/31 08:46:14;;;;;;;4.90;2.38;;;;;;;;;;5061075;28;20792;-75
2023/07/31 08:48:41;;;;;;;2.63;1.85;;;;;;;;;;5061971;28;20055;-74
2023/07/31 08:51:07;;;;;;;5.28;2.60;;;;;;;;;;5065617;28;20135;-75
2023/07/31 08:53:33;;;;;;;3.92;2.58;;;;;;;;;;5062644;28;20054;-74
2023/07/31 08:56:00;;;;;;;3.70;2.45;;;;;;;;;;5068238;28;20064;-75
2023/07/31 08:58:28;;;;;;;5.65;2.95;;;;;;;;;;5064800;28;20157;-74
2023/07/31 09:00:55;;;;;;;3.58;2.70;;;;;;;;;;5061210;28;20656;-74
2023/07/31 09:03:23;;;;;;;3.08;1.50;;;;;;;;;;5064337;28;20122;-73
2023/07/31 09:05:50;;;;;;;4.32;2.05;;;;;;;;;;5064918;28;20062;-75
2023/07/31 09:08:19;;;;;;;3.78;2.70;;;;;;;;;;5059516;28;20047;-76
2023/07/31 09:10:51;;;;;;;8.95;3.33;;;;;;;;;;5081702;28;20141;-75
2023/07/31 09:13:17;;;;;;;4.53;3.03;;;;;;;;;;5066356;27;20091;-74
2023/07/31 09:15:44;;;;;;;3.58;2.40;;;;;;;;;;5081647;27;20052;-74
2023/07/31 09:18:11;;;;;;;4.32;2.58;;;;;;;;;;5065686;28;20070;-75
2023/07/31 09:20:37;;;;;;;3.78;2.42;;;;;;;;;;5062885;28;20571;-75
2023/07/31 09:23:07;;;;;;;4.03;2.22;;;;;;;;;;5058314;28;20070;-75
2023/07/31 09:25:33;;;;;;;4.07;2.20;;;;;;;;;;5037891;28;20056;-74
2023/07/31 09:28:01;;;;;;;4.70;2.22;;;;;;;;;;5056160;28;20468;-71
2023/07/31 09:30:27;;;;;;;5.43;2.50;;;;;;;;;;5077026;27;20048;-76
2023/07/31 09:33:04;;;;;;;3.03;2.30;;;;;;;;;;5057456;28;21252;-75
2023/07/31 09:35:33;;;;;;;1.95;1.50;;;;;;;;;;5060272;28;20082;-74
2023/07/31 09:38:07;;;;;;;3.95;2.20;;;;;;;;;;5059242;28;20051;-74
2023/07/31 09:40:37;;;;;;;3.63;1.95;;;;;;;;;;5063688;28;20135;-74
2023/07/31 09:43:04;;;;;;;4.68;1.85;;;;;;;;;;5059426;28;20139;-74
2023/07/31 09:45:31;;;;;;;3.35;2.00;;;;;;;;;;5080595;28;20376;-74
2023/07/31 09:47:57;;;;;;;2.33;1.67;;;;;;;;;;5065882;28;20217;-74
2023/07/31 09:50:25;;;;;;;2.88;1.85;;;;;;;;;;5086633;27;20048;-74
2023/07/31 09:52:52;;;;;;;2.55;1.75;;;;;;;;;;5085451;27;20055;-74
2023/07/31 09:55:18;;;;;;;2.33;2.10;;;;;;;;;;5065804;28;20127;-74
2023/07/31 09:57:45;;;;;;;2.03;1.50;;;;;;;;;;5062466;28;22336;-73
2023/07/31 10:00:12;;;;;;;3.20;2.05;;;;;;;;;;5082296;27;20058;-74
2023/07/31 10:02:39;;;;;;;2.17;1.88;;;;;;;;;;5080951;28;20044;-74
2023/07/31 10:05:06;;;;;;;2.00;1.80;;;;;;;;;;5050686;28;20399;-74
2023/07/31 10:07:34;;;;;;;2.97;2.50;;;;;;;;;;5060639;28;20051;-72
2023/07/31 10:10:01;;;;;;;2.05;1.60;;;;;;;;;;5050336;28;20062;-75
2023/07/31 10:12:28;;;;;;;2.38;2.00;;;;;;;;;;5075584;27;20083;-72
2023/07/31 10:14:57;;;;;;;2.20;1.23;;;;;;;;;;5055302;28;20134;-74
2023/07/31 10:17:25;;;;;;;1.80;1.70;;;;;;;;;;5062984;28;20390;-74
2023/07/31 10:19:51;;;;;;;2.45;1.20;;;;;;;;;;5078290;28;20044;-74
2023/07/31 10:22:18;;;;;;;1.98;1.67;;;;;;;;;;5081968;27;20764;-73
2023/07/31 10:24:45;;;;;;;1.40;1.30;;;;;;;;;;5051449;28;20649;-74
2023/07/31 10:27:11;;;;;;;1.30;1.20;;;;;;;;;;5065086;28;20609;-73
2023/07/31 10:29:39;;;;;;;1.40;1.30;;;;;;;;;;5060006;28;20043;-73
2023/07/31 10:32:06;;;;;;;2.50;1.05;;;;;;;;;;5063226;28;20039;-74
2023/07/31 10:34:34;;;;;;;1.40;0.80;;;;;;;;;;5081741;28;20044;-74
2023/07/31 10:37:19;;;;;;;1.30;1.20;;;;;;;;;;5046344;28;20044;-74
2023/07/31 10:39:55;;;;;;;1.00;1.00;;;;;;;;;;5064656;28;20461;-75
2023/07/31 10:42:27;;;;;;;1.75;0.70;;;;;;;;;;5048753;28;20051;-75
2023/07/31 10:44:55;;;;;;;0.68;0.68;;;;;;;;;;5064064;28;20062;-75
2023/07/31 10:47:21;;;;;;;2.17;0.80;;;;;;;;;;5054919;28;20048;-76
2023/07/31 10:49:49;;;;;;;1.67;0.90;;;;;;;;;;5062627;28;20096;-74
2023/07/31 10:52:22;;;;;;;4.25;0.70;;;;;;;;;;5084121;28;20052;-75
2023/07/31 10:54:49;;;;;;;0.95;0.90;;;;;;;;;;5083165;28;20043;-75
2023/07/31 10:57:25;;;;;;;0.70;0.70;;;;;;;;;;5047151;28;20058;-76
2023/07/31 10:59:51;;;;;;;0.60;0.60;;;;;;;;;;5047480;28;20691;-76
2023/07/31 11:02:30;;;;;;;0.52;0.52;;;;;;;;;;5062163;28;20047;-76
2023/07/31 11:05:11;;;;;;;1.35;0.82;;;;;;;;;;5046045;28;20571;-76
2023/07/31 11:07:47;;;;;;;2.20;1.80;;;;;;;;;;5066253;28;20052;-75
2023/07/31 11:10:16;;;;;;;3.97;2.20;;;;;;;;;;5062399;28;20055;-75
2023/07/31 11:12:42;;;;;;;10.02;2.45;;;;;;;;;;5081333;28;20051;-74
2023/07/31 11:15:11;;;;;;;6.18;2.85;;;;;;;;;;5080531;28;20043;-74
2023/07/31 11:17:39;;;;;;;6.80;3.22;;;;;;;;;;5047031;28;20103;-74
2023/07/31 11:20:05;;;;;;;7.07;2.80;;;;;;;;;;5060394;28;20124;-74
2023/07/31 11:22:31;;;;;;;8.25;2.72;;;;;;;;;;5043231;28;20422;-74
2023/07/31 11:24:58;;;;;;;6.40;2.35;;;;;;;;;;5043996;28;20048;-74
2023/07/31 11:27:28;;;;;;;4.13;2.28;;;;;;;;;;5077046;28;20929;-74
2023/07/31 11:30:00;;;;;;;4.72;2.53;;;;;;;;;;5057519;28;20060;-74
2023/07/31 11:32:26;;;;;;;5.03;2.38;;;;;;;;;;5039588;28;20043;-74
2023/07/31 11:34:53;;;;;;;5.88;2.83;;;;;;;;;;5077139;28;20131;-74
2023/07/31 11:37:19;;;;;;;4.60;2.45;;;;;;;;;;5053925;28;20048;-74
2023/07/31 11:39:59;;;;;;;5.07;2.33;;;;;;;;;;5026839;28;20100;-74
2023/07/31 11:42:25;;;;;;;6.60;2.67;;;;;;;;;;5079369;28;20047;-74
2023/07/31 11:44:51;;;;;;;4.32;2.50;;;;;;;;;;5045383;28;20431;-74
2023/07/31 11:47:17;;;;;;;5.28;2.10;;;;;;;;;;5078047;28;20048;-74
2023/07/31 11:49:44;;;;;;;4.20;2.15;;;;;;;;;;5043088;28;20047;-74
2023/07/31 11:52:11;;;;;;;7.05;2.25;;;;;;;;;;5059904;28;20051;-73
2023/07/31 11:54:37;;;;;;;6.30;2.67;;;;;;;;;;5078026;28;20507;-74
2023/07/31 11:57:04;;;;;;;4.70;2.47;;;;;;;;;;5056741;28;20044;-74
2023/07/31 11:59:30;;;;;;;5.78;2.28;;;;;;;;;;5059760;28;20558;-73
2023/07/31 12:01:56;;;;;;;6.15;2.13;;;;;;;;;;5059248;28;20464;-73
2023/07/31 12:04:22;;;;;;;6.15;2.20;;;;;;;;;;5059577;28;20039;-74
2023/07/31 12:06:50;;;;;;;5.13;2.00;;;;;;;;;;5078014;28;20047;-73
2023/07/31 12:09:16;;;;;;;6.28;2.28;;;;;;;;;;5059553;28;20470;-74
2023/07/31 12:11:49;;;;;;;4.60;2.50;;;;;;;;;;5042306;28;20104;-73
2023/07/31 12:14:25;;;;;;;7.28;2.67;;;;;;;;;;5057395;28;20048;-73
2023/07/31 12:16:55;;;;;;;5.30;2.45;;;;;;;;;;5064106;28;20108;-73
2023/07/31 12:19:22;;;;;;;3.40;1.90;;;;;;;;;;5062354;28;20074;-73
2023/07/31 12:21:48;;;;;;;5.38;1.98;;;;;;;;;;5078761;28;20055;-73
2023/07/31 12:24:14;;;;;;;7.45;2.20;;;;;;;;;;5061890;28;20139;-73
2023/07/31 12:26:40;;;;;;;3.95;1.50;;;;;;;;;;5065003;28;20141;-73
2023/07/31 12:29:08;;;;;;;4.97;1.80;;;;;;;;;;5067477;28;20052;-73
2023/07/31 12:31:34;;;;;;;3.20;2.65;;;;;;;;;;5085704;28;20481;-73
2023/07/31 12:34:02;;;;;;;3.55;1.75;;;;;;;;;;5081437;28;20047;-73
2023/07/31 12:36:32;;;;;;;2.13;1.75;;;;;;;;;;5066379;28;20058;-73
2023/07/31 12:38:58;;;;;;;3.25;1.63;;;;;;;;;;5065856;28;20049;-73
2023/07/31 12:41:24;;;;;;;3.38;1.83;;;;;;;;;;5080723;28;20376;-74
2023/07/31 12:43:50;;;;;;;2.42;1.95;;;;;;;;;;5064854;28;20054;-74
2023/07/31 12:46:17;;;;;;;2.67;2.00;;;;;;;;;;5063831;28;20388;-74
2023/07/31 12:48:43;;;;;;;6.63;2.42;;;;;;;;;;5082524;28;20039;-74
2023/07/31 12:51:09;;;;;;;4.13;2.80;;;;;;;;;;5065728;28;22314;-74
2023/07/31 12:53:35;;;;;;;3.58;1.88;;;;;;;;;;5061859;28;20053;-74
2023/07/31 12:56:02;;;;;;;3.78;2.60;;;;;;;;;;5061894;28;20480;-74
2023/07/31 12:58:28;;;;;;;4.38;2.05;;;;;;;;;;5083127;28;20047;-74
2023/07/31 13:00:54;;;;;;;3.30;2.25;;;;;;;;;;5065821;28;20055;-73
2023/07/31 13:03:20;;;;;;;3.90;2.40;;;;;;;;;;5066248;28;20054;-73
2023/07/31 13:05:46;;;;;;;3.33;2.65;;;;;;;;;;5050497;28;20139;-73
2023/07/31 13:08:13;;;;;;;2.55;2.28;;;;;;;;;;5062080;28;21333;-73
2023/07/31 13:10:39;;;;;;;5.28;2.50;;;;;;;;;;5079880;28;20122;-73
2023/07/31 13:13:05;;;;;;;5.88;2.20;;;;;;;;;;5064655;28;20135;-73
2023/07/31 13:15:32;;;;;;;7.80;2.40;;;;;;;;;;5063078;28;20055;-73
2023/07/31 13:17:58;;;;;;;2.63;1.92;;;;;;;;;;5078196;28;20081;-73
2023/07/31 13:20:24;;;;;;;2.25;1.83;;;;;;;;;;5062897;28;20047;-73
2023/07/31 13:22:50;;;;;;;4.90;1.60;;;;;;;;;;5079192;28;20371;-73
2023/07/31 13:25:16;;;;;;;4.18;1.75;;;;;;;;;;5079396;27;20060;-73
2023/07/31 13:27:42;;;;;;;4.80;1.05;;;;;;;;;;5058555;28;20138;-79
2023/07/31 13:30:08;;;;;;;0.90;0.90;;;;;;;;;;5067616;28;20051;-79
2023/07/31 13:32:38;;;;;;;2.63;1.05;;;;;;;;;;5069149;28;20894;-79
2023/07/31 13:35:05;;;;;;;1.45;0.80;;;;;;;;;;5069439;28;20487;-79
2023/07/31 13:37:31;;;;;;;5.10;1.20;;;;;;;;;;5071415;28;20047;-79
2023/07/31 13:39:57;;;;;;;1.20;1.10;;;;;;;;;;5085053;28;20178;-80
2023/07/31 13:42:23;;;;;;;5.25;1.60;;;;;;;;;;5067060;28;20051;-80
2023/07/31 13:44:49;;;;;;;4.32;1.48;;;;;;;;;;5064464;28;20043;-79
2023/07/31 13:47:16;;;;;;;3.45;1.50;;;;;;;;;;5073453;28;20062;-79
2023/07/31 13:49:43;;;;;;;2.58;1.08;;;;;;;;;;5070756;28;20054;-78
2023/07/31 13:52:09;;;;;;;5.65;1.48;;;;;;;;;;5088191;28;20052;-78
2023/07/31 13:54:35;;;;;;;1.88;1.30;;;;;;;;;;5074319;28;20099;-78
2023/07/31 13:57:01;;;;;;;4.18;1.40;;;;;;;;;;5073502;28;20056;-78
2023/07/31 13:59:27;;;;;;;4.15;1.30;;;;;;;;;;5088402;28;20063;-77
2023/07/31 14:01:53;;;;;;;4.53;1.50;;;;;;;;;;5053888;27;20625;-79
2023/07/31 14:04:19;;;;;;;5.25;1.35;;;;;;;;;;5079656;28;20035;-78
2023/07/31 14:06:47;;;;;;;2.50;1.40;;;;;;;;;;5040534;28;20177;-79
2023/07/31 14:09:14;;;;;;;9.43;2.38;;;;;;;;;;5061750;28;20475;-79
2023/07/31 14:11:40;;;;;;;3.85;1.52;;;;;;;;;;5079406;28;20059;-79
2023/07/31 14:14:06;;;;;;;2.72;1.67;;;;;;;;;;5079329;28;20705;-79
2023/07/31 14:16:32;;;;;;;10.75;2.35;;;;;;;;;;5066263;28;20067;-78
2023/07/31 14:18:58;;;;;;;8.15;2.42;;;;;;;;;;5087130;28;20081;-79
2023/07/31 14:21:25;;;;;;;5.70;2.30;;;;;;;;;;5078992;28;20100;-79
2023/07/31 14:23:52;;;;;;;4.97;1.88;;;;;;;;;;5056844;28;20040;-78
2023/07/31 14:26:18;;;;;;;6.25;2.35;;;;;;;;;;5077746;28;20048;-78
2023/07/31 14:28:44;;;;;;;7.38;2.10;;;;;;;;;;5055428;28;20040;-79
2023/07/31 14:31:10;;;;;;;7.85;2.17;;;;;;;;;;5045033;28;21533;-78
2023/07/31 14:33:36;;;;;;;17.65;2.30;;;;;;;;;;5061428;28;20079;-78
2023/07/31 14:36:02;;;;;;;7.43;2.40;;;;;;;;;;5078729;28;20058;-79
2023/07/31 14:38:28;;;;;;;5.20;2.67;;;;;;;;;;5084359;28;20050;-79